sensor_id;sensor_type;location;lat;lon;timestamp;P1;durP1;ratioP1;P2;durP2;ratioP2
13435;SDS011;6790;49.520;8.504;2022-11-15T00:00:48;4.77;;;3.30;;
13435;SDS011;6790;49.520;8.504;2022-11-15T00:03:15;3.87;;;3.10;;
13435;SDS011;6790;49.520;8.504;2022-11-15T00:05:51;5.90;;;3.10;;
13435;SDS011;6790;49.520;8.504;2022-11-15T00:08:17;4.10;;;3.10;;
13435;SDS011;6790;49.520;8.504;2022-11-15T00:10:53;5.50;;;4.03;;
13435;SDS011;6790;49.520;8.504;2022-11-15T00:13:24;4.03;;;3.60;;
13435;SDS011;6790;49.520;8.504;2022-11-15T00:15:50;5.33;;;3.40;;
13435;SDS011;6790;49.520;8.504;2022-11-15T00:18:16;4.20;;;3.43;;
13435;SDS011;6790;49.520;8.504;2022-11-15T00:20:43;7.57;;;3.47;;
13435;SDS011;6790;49.520;8.504;2022-11-15T00:23:09;4.33;;;3.40;;
13435;SDS011;6790;49.520;8.504;2022-11-15T00:25:34;4.93;;;3.67;;
13435;SDS011;6790;49.520;8.504;2022-11-15T00:28:00;8.10;;;4.17;;
13435;SDS011;6790;49.520;8.504;2022-11-15T00:30:26;6.73;;;3.47;;
13435;SDS011;6790;49.520;8.504;2022-11-15T00:32:53;7.93;;;3.00;;
13435;SDS011;6790;49.520;8.504;2022-11-15T00:35:19;7.87;;;3.63;;
13435;SDS011;6790;49.520;8.504;2022-11-15T00:37:45;6.03;;;3.60;;
13435;SDS011;6790;49.520;8.504;2022-11-15T00:40:12;7.67;;;3.10;;
13435;SDS011;6790;49.520;8.504;2022-11-15T00:42:38;5.53;;;3.13;;
13435;SDS011;6790;49.520;8.504;2022-11-15T00:45:05;3.93;;;2.97;;
13435;SDS011;6790;49.520;8.504;2022-11-15T00:47:31;5.67;;;3.47;;
13435;SDS011;6790;49.520;8.504;2022-11-15T00:49:57;3.33;;;2.70;;
13435;SDS011;6790;49.520;8.504;2022-11-15T00:52:23;6.20;;;3.30;;
13435;SDS011;6790;49.520;8.504;2022-11-15T00:54:49;3.77;;;3.10;;
13435;SDS011;6790;49.520;8.504;2022-11-15T00:57:14;4.57;;;3.30;;
13435;SDS011;6790;49.520;8.504;2022-11-15T00:59:40;4.17;;;3.57;;
13435;SDS011;6790;49.520;8.504;2022-11-15T01:02:06;5.00;;;3.13;;
13435;SDS011;6790;49.520;8.504;2022-11-15T01:04:31;6.90;;;3.60;;
13435;SDS011;6790;49.520;8.504;2022-11-15T01:06:57;4.90;;;3.60;;
13435;SDS011;6790;49.520;8.504;2022-11-15T01:09:23;5.03;;;3.20;;
13435;SDS011;6790;49.520;8.504;2022-11-15T01:11:48;8.33;;;3.70;;
13435;SDS011;6790;49.520;8.504;2022-11-15T01:14:14;4.40;;;3.20;;
13435;SDS011;6790;49.520;8.504;2022-11-15T01:16:40;7.60;;;2.97;;
13435;SDS011;6790;49.520;8.504;2022-11-15T01:19:05;4.83;;;3.23;;
13435;SDS011;6790;49.520;8.504;2022-11-15T01:21:31;5.87;;;3.67;;
13435;SDS011;6790;49.520;8.504;2022-11-15T01:23:57;3.47;;;2.93;;
13435;SDS011;6790;49.520;8.504;2022-11-15T01:26:23;4.17;;;3.13;;
13435;SDS011;6790;49.520;8.504;2022-11-15T01:28:49;6.63;;;3.30;;
13435;SDS011;6790;49.520;8.504;2022-11-15T01:31:16;5.33;;;3.50;;
13435;SDS011;6790;49.520;8.504;2022-11-15T01:33:46;4.53;;;3.40;;
13435;SDS011;6790;49.520;8.504;2022-11-15T01:36:16;5.60;;;3.40;;
13435;SDS011;6790;49.520;8.504;2022-11-15T01:38:46;4.63;;;2.83;;
13435;SDS011;6790;49.520;8.504;2022-11-15T01:41:20;7.27;;;2.97;;
13435;SDS011;6790;49.520;8.504;2022-11-15T01:43:51;5.67;;;3.60;;
13435;SDS011;6790;49.520;8.504;2022-11-15T01:48:46;7.20;;;3.47;;
13435;SDS011;6790;49.520;8.504;2022-11-15T01:51:16;4.53;;;3.53;;
13435;SDS011;6790;49.520;8.504;2022-11-15T01:53:45;3.73;;;2.90;;
13435;SDS011;6790;49.520;8.504;2022-11-15T01:56:16;5.20;;;3.13;;
13435;SDS011;6790;49.520;8.504;2022-11-15T01:58:51;4.60;;;3.20;;
13435;SDS011;6790;49.520;8.504;2022-11-15T02:01:20;5.17;;;3.50;;
13435;SDS011;6790;49.520;8.504;2022-11-15T02:03:56;6.87;;;3.00;;
13435;SDS011;6790;49.520;8.504;2022-11-15T02:06:49;4.60;;;2.70;;
13435;SDS011;6790;49.520;8.504;2022-11-15T02:09:16;5.87;;;3.20;;
13435;SDS011;6790;49.520;8.504;2022-11-15T02:11:42;3.37;;;2.83;;
13435;SDS011;6790;49.520;8.504;2022-11-15T02:14:10;4.33;;;3.20;;
13435;SDS011;6790;49.520;8.504;2022-11-15T02:22:30;4.67;;;3.30;;
13435;SDS011;6790;49.520;8.504;2022-11-15T02:25:18;5.07;;;3.33;;
13435;SDS011;6790;49.520;8.504;2022-11-15T02:28:33;6.70;;;3.63;;
13435;SDS011;6790;49.520;8.504;2022-11-15T02:34:17;6.67;;;3.00;;
13435;SDS011;6790;49.520;8.504;2022-11-15T02:37:34;5.63;;;3.43;;
13435;SDS011;6790;49.520;8.504;2022-11-15T02:43:00;5.30;;;3.40;;
13435;SDS011;6790;49.520;8.504;2022-11-15T02:46:17;5.80;;;3.00;;
13435;SDS011;6790;49.520;8.504;2022-11-15T02:49:09;5.67;;;3.60;;
13435;SDS011;6790;49.520;8.504;2022-11-15T02:51:37;5.47;;;3.20;;
13435;SDS011;6790;49.520;8.504;2022-11-15T02:54:03;4.00;;;2.90;;
13435;SDS011;6790;49.520;8.504;2022-11-15T02:56:29;6.00;;;3.27;;
13435;SDS011;6790;49.520;8.504;2022-11-15T02:59:08;5.73;;;3.40;;
13435;SDS011;6790;49.520;8.504;2022-11-15T03:07:50;4.63;;;3.30;;
13435;SDS011;6790;49.520;8.504;2022-11-15T03:22:16;7.83;;;3.30;;
13435;SDS011;6790;49.520;8.504;2022-11-15T03:24:47;6.10;;;3.30;;
13435;SDS011;6790;49.520;8.504;2022-11-15T03:27:20;4.60;;;3.30;;
13435;SDS011;6790;49.520;8.504;2022-11-15T03:29:51;8.33;;;2.80;;
13435;SDS011;6790;49.520;8.504;2022-11-15T03:32:29;4.47;;;3.13;;
13435;SDS011;6790;49.520;8.504;2022-11-15T03:35:04;8.40;;;3.50;;
13435;SDS011;6790;49.520;8.504;2022-11-15T03:40:30;3.33;;;2.60;;
13435;SDS011;6790;49.520;8.504;2022-11-15T03:43:09;3.97;;;2.90;;
13435;SDS011;6790;49.520;8.504;2022-11-15T03:46:16;5.17;;;3.10;;
13435;SDS011;6790;49.520;8.504;2022-11-15T03:48:51;5.13;;;3.00;;
13435;SDS011;6790;49.520;8.504;2022-11-15T03:51:24;4.23;;;3.17;;
13435;SDS011;6790;49.520;8.504;2022-11-15T03:53:50;3.17;;;2.70;;
13435;SDS011;6790;49.520;8.504;2022-11-15T03:56:16;6.67;;;3.23;;
13435;SDS011;6790;49.520;8.504;2022-11-15T03:58:41;3.10;;;2.80;;
13435;SDS011;6790;49.520;8.504;2022-11-15T04:01:07;4.23;;;2.80;;
13435;SDS011;6790;49.520;8.504;2022-11-15T04:03:33;4.33;;;2.93;;
13435;SDS011;6790;49.520;8.504;2022-11-15T04:05:58;5.87;;;3.20;;
13435;SDS011;6790;49.520;8.504;2022-11-15T04:08:24;5.20;;;3.03;;
13435;SDS011;6790;49.520;8.504;2022-11-15T04:10:50;4.93;;;3.10;;
13435;SDS011;6790;49.520;8.504;2022-11-15T04:13:16;6.17;;;3.40;;
13435;SDS011;6790;49.520;8.504;2022-11-15T04:15:41;5.97;;;3.67;;
13435;SDS011;6790;49.520;8.504;2022-11-15T04:18:07;4.87;;;3.50;;
13435;SDS011;6790;49.520;8.504;2022-11-15T04:20:33;5.67;;;3.13;;
13435;SDS011;6790;49.520;8.504;2022-11-15T04:23:18;4.53;;;3.47;;
13435;SDS011;6790;49.520;8.504;2022-11-15T04:26:25;4.93;;;3.07;;
13435;SDS011;6790;49.520;8.504;2022-11-15T04:28:50;7.83;;;4.07;;
13435;SDS011;6790;49.520;8.504;2022-11-15T04:31:34;4.63;;;3.90;;
13435;SDS011;6790;49.520;8.504;2022-11-15T04:34:00;6.80;;;4.03;;
13435;SDS011;6790;49.520;8.504;2022-11-15T04:36:26;4.57;;;3.43;;
13435;SDS011;6790;49.520;8.504;2022-11-15T04:39:10;5.30;;;3.90;;
13435;SDS011;6790;49.520;8.504;2022-11-15T04:41:36;6.23;;;3.73;;
13435;SDS011;6790;49.520;8.504;2022-11-15T04:44:02;6.67;;;3.40;;
13435;SDS011;6790;49.520;8.504;2022-11-15T04:46:27;5.43;;;3.70;;
13435;SDS011;6790;49.520;8.504;2022-11-15T04:48:53;5.80;;;3.07;;
13435;SDS011;6790;49.520;8.504;2022-11-15T04:51:20;7.30;;;3.67;;
13435;SDS011;6790;49.520;8.504;2022-11-15T04:53:45;6.23;;;3.20;;
13435;SDS011;6790;49.520;8.504;2022-11-15T04:56:11;4.87;;;3.10;;
13435;SDS011;6790;49.520;8.504;2022-11-15T04:58:37;4.43;;;3.37;;
13435;SDS011;6790;49.520;8.504;2022-11-15T05:01:09;4.07;;;3.00;;
13435;SDS011;6790;49.520;8.504;2022-11-15T05:03:39;4.97;;;3.03;;
13435;SDS011;6790;49.520;8.504;2022-11-15T05:06:24;6.57;;;3.97;;
13435;SDS011;6790;49.520;8.504;2022-11-15T05:08:50;4.50;;;3.30;;
13435;SDS011;6790;49.520;8.504;2022-11-15T05:11:16;4.73;;;3.00;;
13435;SDS011;6790;49.520;8.504;2022-11-15T05:13:41;4.37;;;3.40;;
13435;SDS011;6790;49.520;8.504;2022-11-15T05:16:07;4.60;;;3.50;;
13435;SDS011;6790;49.520;8.504;2022-11-15T05:18:33;5.53;;;3.33;;
13435;SDS011;6790;49.520;8.504;2022-11-15T05:21:05;5.27;;;3.40;;
13435;SDS011;6790;49.520;8.504;2022-11-15T05:23:38;5.40;;;3.47;;
13435;SDS011;6790;49.520;8.504;2022-11-15T05:26:04;6.33;;;3.53;;
13435;SDS011;6790;49.520;8.504;2022-11-15T05:28:31;6.50;;;3.70;;
13435;SDS011;6790;49.520;8.504;2022-11-15T05:31:01;4.33;;;3.17;;
13435;SDS011;6790;49.520;8.504;2022-11-15T05:33:32;8.57;;;3.30;;
13435;SDS011;6790;49.520;8.504;2022-11-15T05:36:06;7.73;;;3.30;;
13435;SDS011;6790;49.520;8.504;2022-11-15T05:38:44;4.10;;;3.10;;
13435;SDS011;6790;49.520;8.504;2022-11-15T05:41:10;4.53;;;2.93;;
13435;SDS011;6790;49.520;8.504;2022-11-15T05:43:37;4.33;;;3.20;;
13435;SDS011;6790;49.520;8.504;2022-11-15T05:46:05;7.93;;;3.20;;
13435;SDS011;6790;49.520;8.504;2022-11-15T05:48:32;4.50;;;2.90;;
13435;SDS011;6790;49.520;8.504;2022-11-15T05:51:00;3.53;;;3.00;;
13435;SDS011;6790;49.520;8.504;2022-11-15T05:53:29;4.80;;;3.00;;
13435;SDS011;6790;49.520;8.504;2022-11-15T05:55:55;6.30;;;3.00;;
13435;SDS011;6790;49.520;8.504;2022-11-15T05:58:21;3.50;;;2.90;;
13435;SDS011;6790;49.520;8.504;2022-11-15T06:00:47;4.57;;;2.87;;
13435;SDS011;6790;49.520;8.504;2022-11-15T06:03:13;4.53;;;3.27;;
13435;SDS011;6790;49.520;8.504;2022-11-15T06:05:39;4.97;;;3.23;;
13435;SDS011;6790;49.520;8.504;2022-11-15T06:08:05;6.27;;;2.90;;
13435;SDS011;6790;49.520;8.504;2022-11-15T06:10:31;4.67;;;3.20;;
13435;SDS011;6790;49.520;8.504;2022-11-15T06:12:58;6.30;;;3.67;;
13435;SDS011;6790;49.520;8.504;2022-11-15T06:15:25;4.27;;;2.70;;
13435;SDS011;6790;49.520;8.504;2022-11-15T06:17:51;4.23;;;3.33;;
13435;SDS011;6790;49.520;8.504;2022-11-15T06:20:17;5.63;;;3.20;;
13435;SDS011;6790;49.520;8.504;2022-11-15T06:22:43;4.50;;;3.30;;
13435;SDS011;6790;49.520;8.504;2022-11-15T06:25:09;19.73;;;9.70;;
13435;SDS011;6790;49.520;8.504;2022-11-15T06:27:34;17.07;;;9.10;;
13435;SDS011;6790;49.520;8.504;2022-11-15T06:30:00;5.13;;;3.50;;
13435;SDS011;6790;49.520;8.504;2022-11-15T06:32:26;6.23;;;3.50;;
13435;SDS011;6790;49.520;8.504;2022-11-15T06:34:53;7.97;;;3.70;;
13435;SDS011;6790;49.520;8.504;2022-11-15T06:37:19;6.30;;;3.73;;
13435;SDS011;6790;49.520;8.504;2022-11-15T06:39:44;4.97;;;3.40;;
13435;SDS011;6790;49.520;8.504;2022-11-15T06:42:10;4.93;;;3.10;;
13435;SDS011;6790;49.520;8.504;2022-11-15T06:44:36;3.37;;;2.90;;
13435;SDS011;6790;49.520;8.504;2022-11-15T06:47:01;3.87;;;2.83;;
13435;SDS011;6790;49.520;8.504;2022-11-15T06:49:27;3.87;;;3.17;;
13435;SDS011;6790;49.520;8.504;2022-11-15T06:51:53;5.57;;;3.23;;
13435;SDS011;6790;49.520;8.504;2022-11-15T06:54:18;3.53;;;3.00;;
13435;SDS011;6790;49.520;8.504;2022-11-15T06:56:45;4.53;;;3.33;;
13435;SDS011;6790;49.520;8.504;2022-11-15T06:59:11;4.07;;;2.80;;
13435;SDS011;6790;49.520;8.504;2022-11-15T07:01:37;7.17;;;3.70;;
13435;SDS011;6790;49.520;8.504;2022-11-15T07:04:02;5.33;;;3.63;;
13435;SDS011;6790;49.520;8.504;2022-11-15T07:06:28;5.77;;;3.40;;
13435;SDS011;6790;49.520;8.504;2022-11-15T07:08:54;5.40;;;3.40;;
13435;SDS011;6790;49.520;8.504;2022-11-15T07:11:19;5.60;;;3.13;;
13435;SDS011;6790;49.520;8.504;2022-11-15T07:13:45;5.53;;;3.23;;
13435;SDS011;6790;49.520;8.504;2022-11-15T07:16:11;6.00;;;3.50;;
13435;SDS011;6790;49.520;8.504;2022-11-15T07:18:37;4.87;;;3.60;;
13435;SDS011;6790;49.520;8.504;2022-11-15T07:21:05;7.37;;;3.53;;
13435;SDS011;6790;49.520;8.504;2022-11-15T07:23:32;5.50;;;3.93;;
13435;SDS011;6790;49.520;8.504;2022-11-15T07:26:01;7.90;;;4.30;;
13435;SDS011;6790;49.520;8.504;2022-11-15T07:28:27;4.97;;;3.50;;
13435;SDS011;6790;49.520;8.504;2022-11-15T07:30:52;4.57;;;3.50;;
13435;SDS011;6790;49.520;8.504;2022-11-15T07:33:18;8.50;;;4.23;;
13435;SDS011;6790;49.520;8.504;2022-11-15T07:35:44;5.83;;;3.50;;
13435;SDS011;6790;49.520;8.504;2022-11-15T07:38:13;6.87;;;3.57;;
13435;SDS011;6790;49.520;8.504;2022-11-15T07:40:39;8.80;;;3.37;;
13435;SDS011;6790;49.520;8.504;2022-11-15T07:43:06;6.03;;;3.40;;
13435;SDS011;6790;49.520;8.504;2022-11-15T07:45:33;9.27;;;4.00;;
13435;SDS011;6790;49.520;8.504;2022-11-15T07:48:05;8.87;;;3.30;;
13435;SDS011;6790;49.520;8.504;2022-11-15T07:50:31;6.57;;;3.33;;
13435;SDS011;6790;49.520;8.504;2022-11-15T07:52:57;4.50;;;3.00;;
13435;SDS011;6790;49.520;8.504;2022-11-15T07:55:25;5.33;;;3.27;;
13435;SDS011;6790;49.520;8.504;2022-11-15T07:57:59;6.40;;;3.57;;
13435;SDS011;6790;49.520;8.504;2022-11-15T08:00:30;7.07;;;3.53;;
13435;SDS011;6790;49.520;8.504;2022-11-15T08:03:09;6.17;;;3.30;;
13435;SDS011;6790;49.520;8.504;2022-11-15T08:05:38;7.47;;;3.53;;
13435;SDS011;6790;49.520;8.504;2022-11-15T08:08:05;5.40;;;3.67;;
13435;SDS011;6790;49.520;8.504;2022-11-15T08:10:32;4.10;;;3.10;;
13435;SDS011;6790;49.520;8.504;2022-11-15T08:13:08;8.53;;;3.57;;
13435;SDS011;6790;49.520;8.504;2022-11-15T08:15:36;4.47;;;3.20;;
13435;SDS011;6790;49.520;8.504;2022-11-15T08:18:04;8.60;;;3.13;;
13435;SDS011;6790;49.520;8.504;2022-11-15T08:20:41;8.00;;;3.20;;
13435;SDS011;6790;49.520;8.504;2022-11-15T08:23:07;7.77;;;3.47;;
13435;SDS011;6790;49.520;8.504;2022-11-15T08:25:34;4.03;;;3.00;;
13435;SDS011;6790;49.520;8.504;2022-11-15T08:28:01;7.13;;;3.23;;
13435;SDS011;6790;49.520;8.504;2022-11-15T08:30:30;5.60;;;3.37;;
13435;SDS011;6790;49.520;8.504;2022-11-15T08:33:01;9.80;;;4.00;;
13435;SDS011;6790;49.520;8.504;2022-11-15T08:35:27;5.80;;;3.47;;
13435;SDS011;6790;49.520;8.504;2022-11-15T08:37:53;5.30;;;3.60;;
13435;SDS011;6790;49.520;8.504;2022-11-15T08:40:19;7.13;;;3.63;;
13435;SDS011;6790;49.520;8.504;2022-11-15T08:42:46;7.53;;;3.93;;
13435;SDS011;6790;49.520;8.504;2022-11-15T08:45:12;4.93;;;3.83;;
13435;SDS011;6790;49.520;8.504;2022-11-15T08:47:38;6.67;;;3.27;;
13435;SDS011;6790;49.520;8.504;2022-11-15T08:50:04;3.93;;;3.00;;
13435;SDS011;6790;49.520;8.504;2022-11-15T08:52:30;5.20;;;3.37;;
13435;SDS011;6790;49.520;8.504;2022-11-15T08:54:57;4.60;;;3.30;;
13435;SDS011;6790;49.520;8.504;2022-11-15T08:57:23;5.97;;;3.50;;
13435;SDS011;6790;49.520;8.504;2022-11-15T08:59:49;5.63;;;3.60;;
13435;SDS011;6790;49.520;8.504;2022-11-15T09:02:15;5.53;;;3.47;;
13435;SDS011;6790;49.520;8.504;2022-11-15T09:04:41;4.57;;;3.50;;
13435;SDS011;6790;49.520;8.504;2022-11-15T09:07:09;4.73;;;3.17;;
13435;SDS011;6790;49.520;8.504;2022-11-15T09:09:36;4.53;;;3.33;;
13435;SDS011;6790;49.520;8.504;2022-11-15T09:12:02;5.33;;;2.97;;
13435;SDS011;6790;49.520;8.504;2022-11-15T09:14:29;4.90;;;3.63;;
13435;SDS011;6790;49.520;8.504;2022-11-15T09:16:54;5.67;;;3.30;;
13435;SDS011;6790;49.520;8.504;2022-11-15T09:19:20;5.43;;;3.30;;
13435;SDS011;6790;49.520;8.504;2022-11-15T09:21:46;3.97;;;3.27;;
13435;SDS011;6790;49.520;8.504;2022-11-15T09:24:12;3.97;;;3.37;;
13435;SDS011;6790;49.520;8.504;2022-11-15T09:26:38;6.23;;;3.63;;
13435;SDS011;6790;49.520;8.504;2022-11-15T09:29:04;5.43;;;3.23;;
13435;SDS011;6790;49.520;8.504;2022-11-15T09:31:30;3.60;;;2.93;;
13435;SDS011;6790;49.520;8.504;2022-11-15T09:33:55;6.33;;;3.30;;
13435;SDS011;6790;49.520;8.504;2022-11-15T09:36:21;5.10;;;3.10;;
13435;SDS011;6790;49.520;8.504;2022-11-15T09:38:47;7.33;;;2.90;;
13435;SDS011;6790;49.520;8.504;2022-11-15T09:43:43;6.43;;;4.17;;
13435;SDS011;6790;49.520;8.504;2022-11-15T09:49:56;5.33;;;3.30;;
13435;SDS011;6790;49.520;8.504;2022-11-15T09:52:25;4.43;;;3.27;;
13435;SDS011;6790;49.520;8.504;2022-11-15T09:54:51;4.20;;;3.70;;
13435;SDS011;6790;49.520;8.504;2022-11-15T09:57:23;6.13;;;3.60;;
13435;SDS011;6790;49.520;8.504;2022-11-15T09:59:59;6.70;;;3.20;;
13435;SDS011;6790;49.520;8.504;2022-11-15T10:02:46;4.83;;;3.27;;
13435;SDS011;6790;49.520;8.504;2022-11-15T10:05:22;5.73;;;3.63;;
13435;SDS011;6790;49.520;8.504;2022-11-15T10:11:01;6.23;;;3.33;;
13435;SDS011;6790;49.520;8.504;2022-11-15T10:13:37;5.30;;;3.40;;
13435;SDS011;6790;49.520;8.504;2022-11-15T10:19:14;4.50;;;3.00;;
13435;SDS011;6790;49.520;8.504;2022-11-15T10:22:05;3.83;;;3.13;;
13435;SDS011;6790;49.520;8.504;2022-11-15T10:24:40;3.87;;;2.83;;
13435;SDS011;6790;49.520;8.504;2022-11-15T10:27:13;3.93;;;3.10;;
13435;SDS011;6790;49.520;8.504;2022-11-15T10:29:45;6.83;;;3.30;;
13435;SDS011;6790;49.520;8.504;2022-11-15T10:32:16;3.57;;;2.80;;
13435;SDS011;6790;49.520;8.504;2022-11-15T10:34:44;4.53;;;2.80;;
13435;SDS011;6790;49.520;8.504;2022-11-15T10:37:11;6.60;;;3.37;;
13435;SDS011;6790;49.520;8.504;2022-11-15T10:39:37;5.73;;;3.20;;
13435;SDS011;6790;49.520;8.504;2022-11-15T10:42:48;4.83;;;3.37;;
13435;SDS011;6790;49.520;8.504;2022-11-15T10:44:53;6.43;;;3.30;;
13435;SDS011;6790;49.520;8.504;2022-11-15T10:47:21;8.73;;;3.00;;
13435;SDS011;6790;49.520;8.504;2022-11-15T10:50:00;5.87;;;3.40;;
13435;SDS011;6790;49.520;8.504;2022-11-15T10:52:33;4.27;;;2.83;;
13435;SDS011;6790;49.520;8.504;2022-11-15T10:55:02;4.73;;;2.90;;
13435;SDS011;6790;49.520;8.504;2022-11-15T10:57:49;5.43;;;3.30;;
13435;SDS011;6790;49.520;8.504;2022-11-15T11:02:45;3.57;;;2.90;;
13435;SDS011;6790;49.520;8.504;2022-11-15T11:08:36;5.20;;;3.20;;
13435;SDS011;6790;49.520;8.504;2022-11-15T11:10:52;4.50;;;2.87;;
13435;SDS011;6790;49.520;8.504;2022-11-15T11:13:23;5.30;;;2.77;;
13435;SDS011;6790;49.520;8.504;2022-11-15T11:15:55;3.90;;;2.83;;
13435;SDS011;6790;49.520;8.504;2022-11-15T11:27:44;4.27;;;2.50;;
13435;SDS011;6790;49.520;8.504;2022-11-15T11:30:39;5.07;;;2.90;;
13435;SDS011;6790;49.520;8.504;2022-11-15T11:36:34;6.33;;;2.60;;
13435;SDS011;6790;49.520;8.504;2022-11-15T11:39:58;3.87;;;2.60;;
13435;SDS011;6790;49.520;8.504;2022-11-15T11:42:35;4.33;;;2.40;;
13435;SDS011;6790;49.520;8.504;2022-11-15T11:45:24;5.27;;;3.17;;
13435;SDS011;6790;49.520;8.504;2022-11-15T11:48:08;3.70;;;2.63;;
13435;SDS011;6790;49.520;8.504;2022-11-15T11:50:38;4.17;;;2.80;;
13435;SDS011;6790;49.520;8.504;2022-11-15T11:56:01;3.47;;;2.53;;
13435;SDS011;6790;49.520;8.504;2022-11-15T11:58:43;3.20;;;2.53;;
13435;SDS011;6790;49.520;8.504;2022-11-15T12:01:13;2.77;;;2.27;;
13435;SDS011;6790;49.520;8.504;2022-11-15T12:04:09;3.13;;;2.50;;
13435;SDS011;6790;49.520;8.504;2022-11-15T12:06:46;2.83;;;2.10;;
13435;SDS011;6790;49.520;8.504;2022-11-15T12:09:41;3.13;;;2.13;;
13435;SDS011;6790;49.520;8.504;2022-11-15T12:15:31;4.50;;;2.43;;
13435;SDS011;6790;49.520;8.504;2022-11-15T12:18:04;3.03;;;2.47;;
13435;SDS011;6790;49.520;8.504;2022-11-15T12:20:33;3.60;;;1.97;;
13435;SDS011;6790;49.520;8.504;2022-11-15T12:23:08;4.47;;;2.27;;
13435;SDS011;6790;49.520;8.504;2022-11-15T12:25:49;2.30;;;2.10;;
13435;SDS011;6790;49.520;8.504;2022-11-15T12:28:47;2.30;;;1.80;;
13435;SDS011;6790;49.520;8.504;2022-11-15T12:34:03;2.70;;;1.73;;
13435;SDS011;6790;49.520;8.504;2022-11-15T12:36:55;3.33;;;1.80;;
13435;SDS011;6790;49.520;8.504;2022-11-15T12:39:21;3.93;;;1.70;;
13435;SDS011;6790;49.520;8.504;2022-11-15T12:42:39;3.70;;;2.23;;
13435;SDS011;6790;49.520;8.504;2022-11-15T12:45:28;2.27;;;1.83;;
13435;SDS011;6790;49.520;8.504;2022-11-15T12:48:45;2.50;;;2.10;;
13435;SDS011;6790;49.520;8.504;2022-11-15T12:51:00;2.73;;;2.00;;
13435;SDS011;6790;49.520;8.504;2022-11-15T12:53:27;3.73;;;2.13;;
13435;SDS011;6790;49.520;8.504;2022-11-15T13:12:01;2.77;;;1.70;;
13435;SDS011;6790;49.520;8.504;2022-11-15T13:17:42;2.30;;;1.80;;
13435;SDS011;6790;49.520;8.504;2022-11-15T13:28:42;5.93;;;2.40;;
13435;SDS011;6790;49.520;8.504;2022-11-15T13:31:35;6.63;;;3.80;;
13435;SDS011;6790;49.520;8.504;2022-11-15T13:36:56;4.00;;;3.00;;
13435;SDS011;6790;49.520;8.504;2022-11-15T13:39:40;3.10;;;2.00;;
13435;SDS011;6790;49.520;8.504;2022-11-15T13:42:10;3.53;;;2.50;;
13435;SDS011;6790;49.520;8.504;2022-11-15T13:44:41;4.93;;;2.40;;
13435;SDS011;6790;49.520;8.504;2022-11-15T13:47:26;3.60;;;2.40;;
13435;SDS011;6790;49.520;8.504;2022-11-15T13:49:53;4.37;;;2.30;;
13435;SDS011;6790;49.520;8.504;2022-11-15T13:52:22;3.73;;;2.20;;
13435;SDS011;6790;49.520;8.504;2022-11-15T13:55:02;4.83;;;2.40;;
13435;SDS011;6790;49.520;8.504;2022-11-15T14:00:35;2.40;;;2.17;;
13435;SDS011;6790;49.520;8.504;2022-11-15T14:05:42;3.20;;;2.23;;
13435;SDS011;6790;49.520;8.504;2022-11-15T14:10:44;7.77;;;3.50;;
13435;SDS011;6790;49.520;8.504;2022-11-15T14:13:11;4.20;;;2.40;;
13435;SDS011;6790;49.520;8.504;2022-11-15T14:15:53;2.57;;;2.00;;
13435;SDS011;6790;49.520;8.504;2022-11-15T14:21:08;4.53;;;2.60;;
13435;SDS011;6790;49.520;8.504;2022-11-15T14:23:34;2.67;;;2.13;;
13435;SDS011;6790;49.520;8.504;2022-11-15T14:26:00;3.23;;;2.10;;
13435;SDS011;6790;49.520;8.504;2022-11-15T14:30:52;3.60;;;2.77;;
13435;SDS011;6790;49.520;8.504;2022-11-15T14:33:30;3.50;;;2.43;;
13435;SDS011;6790;49.520;8.504;2022-11-15T14:36:02;2.73;;;2.37;;
13435;SDS011;6790;49.520;8.504;2022-11-15T14:38:31;3.43;;;2.37;;
13435;SDS011;6790;49.520;8.504;2022-11-15T14:40:57;3.53;;;2.30;;
13435;SDS011;6790;49.520;8.504;2022-11-15T14:43:23;2.70;;;2.20;;
13435;SDS011;6790;49.520;8.504;2022-11-15T14:45:49;5.23;;;2.33;;
13435;SDS011;6790;49.520;8.504;2022-11-15T14:48:14;4.07;;;2.20;;
13435;SDS011;6790;49.520;8.504;2022-11-15T14:50:40;3.63;;;2.70;;
13435;SDS011;6790;49.520;8.504;2022-11-15T14:53:06;9.57;;;5.00;;
13435;SDS011;6790;49.520;8.504;2022-11-15T14:55:35;7.27;;;3.60;;
13435;SDS011;6790;49.520;8.504;2022-11-15T14:58:02;7.33;;;3.10;;
13435;SDS011;6790;49.520;8.504;2022-11-15T15:00:32;5.27;;;4.03;;
13435;SDS011;6790;49.520;8.504;2022-11-15T15:02:57;5.30;;;2.63;;
13435;SDS011;6790;49.520;8.504;2022-11-15T15:05:31;3.97;;;2.53;;
13435;SDS011;6790;49.520;8.504;2022-11-15T15:08:08;6.13;;;2.97;;
13435;SDS011;6790;49.520;8.504;2022-11-15T15:10:35;5.77;;;2.83;;
13435;SDS011;6790;49.520;8.504;2022-11-15T15:13:04;3.87;;;2.90;;
13435;SDS011;6790;49.520;8.504;2022-11-15T15:15:32;5.30;;;3.00;;
13435;SDS011;6790;49.520;8.504;2022-11-15T15:18:01;15.57;;;8.60;;
13435;SDS011;6790;49.520;8.504;2022-11-15T15:20:29;5.13;;;3.00;;
13435;SDS011;6790;49.520;8.504;2022-11-15T15:22:56;8.80;;;5.17;;
13435;SDS011;6790;49.520;8.504;2022-11-15T15:25:23;13.73;;;9.70;;
13435;SDS011;6790;49.520;8.504;2022-11-15T15:27:59;6.60;;;3.70;;
13435;SDS011;6790;49.520;8.504;2022-11-15T15:30:27;6.97;;;4.30;;
13435;SDS011;6790;49.520;8.504;2022-11-15T15:32:54;7.23;;;4.33;;
13435;SDS011;6790;49.520;8.504;2022-11-15T15:35:20;5.20;;;4.27;;
13435;SDS011;6790;49.520;8.504;2022-11-15T15:37:47;6.07;;;3.50;;
13435;SDS011;6790;49.520;8.504;2022-11-15T15:40:19;5.13;;;3.67;;
13435;SDS011;6790;49.520;8.504;2022-11-15T15:42:47;5.23;;;3.30;;
13435;SDS011;6790;49.520;8.504;2022-11-15T15:45:14;12.93;;;3.43;;
13435;SDS011;6790;49.520;8.504;2022-11-15T15:47:41;4.40;;;3.10;;
13435;SDS011;6790;49.520;8.504;2022-11-15T15:50:20;4.30;;;3.17;;
13435;SDS011;6790;49.520;8.504;2022-11-15T15:52:51;13.30;;;3.57;;
13435;SDS011;6790;49.520;8.504;2022-11-15T15:55:21;5.63;;;3.60;;
13435;SDS011;6790;49.520;8.504;2022-11-15T15:57:47;4.50;;;3.43;;
13435;SDS011;6790;49.520;8.504;2022-11-15T16:00:14;5.27;;;3.20;;
13435;SDS011;6790;49.520;8.504;2022-11-15T16:02:41;8.60;;;3.80;;
13435;SDS011;6790;49.520;8.504;2022-11-15T16:05:08;4.57;;;3.37;;
13435;SDS011;6790;49.520;8.504;2022-11-15T16:07:35;6.50;;;3.70;;
13435;SDS011;6790;49.520;8.504;2022-11-15T16:10:02;4.60;;;3.57;;
13435;SDS011;6790;49.520;8.504;2022-11-15T16:12:40;6.33;;;4.10;;
13435;SDS011;6790;49.520;8.504;2022-11-15T16:15:07;5.00;;;3.97;;
13435;SDS011;6790;49.520;8.504;2022-11-15T16:17:34;6.87;;;4.10;;
13435;SDS011;6790;49.520;8.504;2022-11-15T16:20:06;5.40;;;3.57;;
13435;SDS011;6790;49.520;8.504;2022-11-15T16:22:46;5.77;;;4.07;;
13435;SDS011;6790;49.520;8.504;2022-11-15T16:25:11;4.70;;;3.60;;
13435;SDS011;6790;49.520;8.504;2022-11-15T16:27:37;8.03;;;3.50;;
13435;SDS011;6790;49.520;8.504;2022-11-15T16:30:12;5.77;;;3.77;;
13435;SDS011;6790;49.520;8.504;2022-11-15T16:32:40;7.30;;;3.60;;
13435;SDS011;6790;49.520;8.504;2022-11-15T16:35:06;5.30;;;3.57;;
13435;SDS011;6790;49.520;8.504;2022-11-15T16:37:37;7.43;;;3.67;;
13435;SDS011;6790;49.520;8.504;2022-11-15T16:40:09;6.70;;;4.03;;
13435;SDS011;6790;49.520;8.504;2022-11-15T16:42:49;7.00;;;3.90;;
13435;SDS011;6790;49.520;8.504;2022-11-15T16:45:15;8.00;;;5.40;;
13435;SDS011;6790;49.520;8.504;2022-11-15T16:47:41;14.73;;;8.13;;
13435;SDS011;6790;49.520;8.504;2022-11-15T16:50:12;16.53;;;7.30;;
13435;SDS011;6790;49.520;8.504;2022-11-15T16:52:53;11.80;;;5.57;;
13435;SDS011;6790;49.520;8.504;2022-11-15T16:55:24;13.43;;;6.90;;
13435;SDS011;6790;49.520;8.504;2022-11-15T16:57:52;10.37;;;6.10;;
13435;SDS011;6790;49.520;8.504;2022-11-15T17:00:19;8.43;;;5.93;;
13435;SDS011;6790;49.520;8.504;2022-11-15T17:02:46;8.63;;;5.83;;
13435;SDS011;6790;49.520;8.504;2022-11-15T17:05:14;8.07;;;5.17;;
13435;SDS011;6790;49.520;8.504;2022-11-15T17:07:42;10.57;;;5.90;;
13435;SDS011;6790;49.520;8.504;2022-11-15T17:10:12;9.10;;;5.83;;
13435;SDS011;6790;49.520;8.504;2022-11-15T17:12:38;11.17;;;6.23;;
13435;SDS011;6790;49.520;8.504;2022-11-15T17:15:04;7.50;;;5.23;;
13435;SDS011;6790;49.520;8.504;2022-11-15T17:17:30;9.70;;;5.70;;
13435;SDS011;6790;49.520;8.504;2022-11-15T17:19:56;11.67;;;5.63;;